Time;durP1;ratioP1;P1;durP2;ratioP2;P2;SDS_P1;SDS_P2;PMS_P1;PMS_P2;Temp;Humidity;BMP_temperature;BMP_pressure;BME280_temperature;BME280_humidity;BME280_pressure;Samples;Min_cycle;Max_cycle;Signal;HPM_P1;HPM_P2
2022/02/05 00:00:40;;;;;;;;;;;13.60;99.90;;;;;;5036833;28;778;-47
2022/02/05 00:03:29;;;;;;;;;;;13.60;99.90;;;;;;5019614;28;958;-45
2022/02/05 00:06:01;;;;;;;;;;;13.60;99.90;;;;;;5040661;28;992;-47
2022/02/05 00:41:18;;;;;;;;;;;13.40;99.90;;;;;;5059961;28;739;-54
2022/02/05 00:43:53;;;;;;;;;;;13.40;99.90;;;;;;5075088;28;1254;-54
2022/02/05 00:46:20;;;;;;;;;;;13.40;99.90;;;;;;5059202;28;1472;-54
2022/02/05 00:48:48;;;;;;;;;;;13.40;99.90;;;;;;5059515;28;892;-54
2022/02/05 00:51:25;;;;;;;;;;;13.30;99.90;;;;;;5040853;28;1008;-54
2022/02/05 00:54:10;;;;;;;;;;;13.40;99.90;;;;;;5058726;28;1965;-54
2022/02/05 00:59:43;;;;;;;;;;;13.30;99.90;;;;;;5058378;28;747;-54
2022/02/05 01:02:09;;;;;;;;;;;13.30;99.90;;;;;;5024213;28;915;-54
2022/02/05 01:04:37;;;;;;;;;;;13.30;99.90;;;;;;5042015;28;948;-47
2022/02/05 01:07:04;;;;;;;;;;;13.20;99.90;;;;;;5041428;28;1037;-47
2022/02/05 01:09:31;;;;;;;;;;;13.30;99.90;;;;;;5059096;28;892;-47
2022/02/05 01:12:01;;;;;;;;;;;13.20;99.90;;;;;;5058953;28;1018;-46
2022/02/05 01:14:33;;;;;;;;;;;13.20;99.90;;;;;;5058992;28;1989;-46
2022/02/05 01:22:47;;;;;;;;;;;13.20;99.90;;;;;;4958321;29;1262;-47
2022/02/05 01:25:19;;;;;;;;;;;13.20;99.90;;;;;;4957939;29;1088;-46
2022/02/05 01:27:55;;;;;;;;;;;13.20;99.90;;;;;;4958388;29;796;-54
2022/02/05 01:30:34;;;;;;;;;;;13.10;99.90;;;;;;4958307;29;1862;-54
2022/02/05 01:36:11;;;;;;;;;;;13.10;99.90;;;;;;4958255;29;823;-55
2022/02/05 01:57:23;;;;;;;;;;;13.00;99.90;;;;;;5021274;28;986;-54
2022/02/05 02:04:49;;;;;;;;;;;12.90;99.90;;;;;;5040444;28;867;-54
2022/02/05 02:05:51;;;;;;;;;;;12.90;99.90;;;;;;5058247;28;817;-54
2022/02/05 02:11:36;;;;;;;;;;;12.90;99.90;;;;;;5058025;28;851;-54
2022/02/05 02:25:25;;;;;;;;;;;12.80;99.90;;;;;;5057161;28;800;-54
2022/02/05 02:28:05;;;;;;;;;;;12.80;99.90;;;;;;5028168;28;1062;-54
2022/02/05 02:30:40;;;;;;;;;;;12.80;99.90;;;;;;5023311;28;945;-46
2022/02/05 02:33:16;;;;;;;;;;;12.80;99.90;;;;;;5039581;28;1906;-46
2022/02/05 02:35:47;;;;;;;;;;;12.80;99.90;;;;;;5039692;28;963;-46
2022/02/05 02:38:16;;;;;;;;;;;12.70;99.90;;;;;;5022896;28;931;-46
2022/02/05 02:43:41;;;;;;;;;;;12.70;99.90;;;;;;5003045;28;1251;-46
2022/02/05 02:46:09;;;;;;;;;;;12.70;99.90;;;;;;5015893;28;909;-46
2022/02/05 02:48:36;;;;;;;;;;;12.70;99.90;;;;;;5014979;28;814;-47
2022/02/05 02:59:26;;;;;;;;;;;12.60;99.90;;;;;;5015806;28;816;-46
2022/02/05 03:02:10;;;;;;;;;;;12.60;99.90;;;;;;5016031;28;1070;-46
2022/02/05 03:04:41;;;;;;;;;;;12.60;99.90;;;;;;5015792;28;842;-46
2022/02/05 03:07:10;;;;;;;;;;;12.60;99.90;;;;;;5015726;28;1084;-46
2022/02/05 03:09:36;;;;;;;;;;;12.60;99.90;;;;;;5015630;28;861;-46
2022/02/05 03:12:06;;;;;;;;;;;12.60;99.90;;;;;;5042206;28;1222;-46
2022/02/05 03:14:33;;;;;;;;;;;12.60;99.90;;;;;;5037969;28;1902;-46
2022/02/05 03:17:15;;;;;;;;;;;12.50;99.90;;;;;;5005551;28;1070;-46
2022/02/05 03:19:44;;;;;;;;;;;12.50;99.90;;;;;;5057008;28;848;-54
2022/02/05 03:22:10;;;;;;;;;;;12.50;99.90;;;;;;5018752;28;1187;-54
2022/02/05 03:24:36;;;;;;;;;;;12.50;99.90;;;;;;5018805;28;975;-54
2022/02/05 03:27:04;;;;;;;;;;;12.50;99.90;;;;;;5037016;28;896;-54
2022/02/05 03:29:30;;;;;;;;;;;12.50;99.90;;;;;;5036473;28;901;-54
2022/02/05 03:31:56;;;;;;;;;;;12.50;99.90;;;;;;5035230;28;1331;-54
2022/02/05 03:34:22;;;;;;;;;;;12.50;99.90;;;;;;5035198;28;1906;-54
2022/02/05 03:37:08;;;;;;;;;;;12.50;99.90;;;;;;5037070;28;841;-54
2022/02/05 03:39:37;;;;;;;;;;;12.50;99.90;;;;;;5036562;28;843;-54
2022/02/05 03:42:04;;;;;;;;;;;12.40;99.90;;;;;;5036715;28;854;-54
2022/02/05 03:44:30;;;;;;;;;;;12.40;99.90;;;;;;5036566;28;838;-54
2022/02/05 03:46:58;;;;;;;;;;;12.40;99.90;;;;;;5036608;28;861;-54
2022/02/05 03:49:24;;;;;;;;;;;12.40;99.90;;;;;;4986187;28;951;-54
2022/02/05 03:51:51;;;;;;;;;;;12.40;99.90;;;;;;5035795;28;785;-54
2022/02/05 03:54:20;;;;;;;;;;;12.40;99.90;;;;;;5036190;28;2006;-54
2022/02/05 03:56:54;;;;;;;;;;;12.40;99.90;;;;;;5017923;28;1282;-54
2022/02/05 03:59:21;;;;;;;;;;;12.30;99.90;;;;;;5035663;28;825;-54
2022/02/05 04:01:47;;;;;;;;;;;12.30;99.90;;;;;;5036426;28;868;-54
2022/02/05 04:04:15;;;;;;;;;;;12.40;99.90;;;;;;5035435;28;976;-54
2022/02/05 04:06:41;;;;;;;;;;;12.30;99.90;;;;;;5036275;28;859;-54
2022/02/05 04:09:17;;;;;;;;;;;12.30;99.90;;;;;;5035989;28;1007;-54
2022/02/05 04:17:20;;;;;;;;;;;12.30;99.90;;;;;;5036343;28;845;-54
2022/02/05 04:19:46;;;;;;;;;;;12.30;99.90;;;;;;5036388;28;767;-54
2022/02/05 04:22:13;;;;;;;;;;;12.30;99.90;;;;;;5044419;28;1171;-54
2022/02/05 04:24:41;;;;;;;;;;;12.20;99.90;;;;;;5055761;28;905;-54
2022/02/05 04:27:10;;;;;;;;;;;12.30;99.90;;;;;;5056166;28;832;-54
2022/02/05 04:29:36;;;;;;;;;;;12.20;99.90;;;;;;5021698;28;907;-54
2022/02/05 04:32:05;;;;;;;;;;;12.20;99.90;;;;;;5056205;28;817;-54
2022/02/05 04:34:31;;;;;;;;;;;12.20;99.90;;;;;;5062546;28;1902;-54
2022/02/05 04:36:58;;;;;;;;;;;12.20;99.90;;;;;;5024139;28;937;-54
2022/02/05 04:39:25;;;;;;;;;;;12.20;99.90;;;;;;5055105;28;1010;-54
2022/02/05 04:42:04;;;;;;;;;;;12.20;99.90;;;;;;5056120;28;794;-54
2022/02/05 05:00:43;;;;;;;;;;;12.10;99.90;;;;;;5059480;28;789;-54
2022/02/05 05:08:48;;;;;;;;;;;12.10;99.90;;;;;;5059292;28;741;-54
2022/02/05 05:22:01;;;;;;;;;;;12.00;99.90;;;;;;4997537;28;1059;-46
2022/02/05 05:24:30;;;;;;;;;;;12.00;99.90;;;;;;4997417;28;887;-46
2022/02/05 05:26:57;;;;;;;;;;;12.00;99.90;;;;;;4997434;28;1036;-47
2022/02/05 05:29:25;;;;;;;;;;;12.00;99.90;;;;;;4997440;28;909;-46
2022/02/05 05:31:54;;;;;;;;;;;12.00;99.90;;;;;;4981444;28;1446;-46
2022/02/05 05:34:20;;;;;;;;;;;12.00;99.90;;;;;;4997630;28;1914;-46
2022/02/05 05:36:48;;;;;;;;;;;12.00;99.90;;;;;;4997924;28;823;-46
2022/02/05 05:39:15;;;;;;;;;;;12.00;99.90;;;;;;4965442;28;1078;-46
2022/02/05 05:41:43;;;;;;;;;;;12.00;99.90;;;;;;4998051;28;890;-46
2022/02/05 05:47:13;;;;;;;;;;;12.00;99.90;;;;;;4965425;28;997;-46
2022/02/05 05:49:59;;;;;;;;;;;12.00;99.90;;;;;;4997681;28;893;-46
2022/02/05 05:52:28;;;;;;;;;;;12.00;99.90;;;;;;4993228;28;940;-47
2022/02/05 05:54:56;;;;;;;;;;;11.90;99.90;;;;;;4997303;28;1898;-47
2022/02/05 05:57:23;;;;;;;;;;;11.90;99.90;;;;;;4997471;28;811;-47
2022/02/05 05:59:51;;;;;;;;;;;11.90;99.90;;;;;;5046301;28;881;-47
2022/02/05 06:02:18;;;;;;;;;;;11.90;99.90;;;;;;5058288;28;908;-47
2022/02/05 06:04:44;;;;;;;;;;;11.90;99.90;;;;;;5058418;28;858;-46
2022/02/05 06:07:10;;;;;;;;;;;11.90;99.90;;;;;;5040247;28;1021;-46
2022/02/05 06:09:42;;;;;;;;;;;11.90;99.90;;;;;;5058002;28;896;-46
2022/02/05 06:12:08;;;;;;;;;;;11.90;99.90;;;;;;5058255;28;824;-46
2022/02/05 06:14:34;;;;;;;;;;;11.90;99.90;;;;;;5057295;28;1902;-54
2022/02/05 06:17:07;;;;;;;;;;;11.90;99.90;;;;;;5023405;28;1120;-47
2022/02/05 06:19:35;;;;;;;;;;;11.80;99.90;;;;;;5058073;28;852;-46
2022/02/05 06:22:03;;;;;;;;;;;11.80;99.90;;;;;;5057288;28;1199;-46
2022/02/05 06:24:29;;;;;;;;;;;11.80;99.90;;;;;;5039744;28;906;-46
2022/02/05 06:26:55;;;;;;;;;;;11.80;99.90;;;;;;5057811;28;803;-46
2022/02/05 06:29:23;;;;;;;;;;;11.80;99.90;;;;;;5057379;28;886;-46
2022/02/05 06:31:51;;;;;;;;;;;11.80;99.90;;;;;;5058026;28;919;-46
2022/02/05 06:34:17;;;;;;;;;;;11.80;99.90;;;;;;5057002;28;1910;-46
2022/02/05 06:36:44;;;;;;;;;;;11.80;99.90;;;;;;5057559;28;908;-46
2022/02/05 06:39:16;;;;;;;;;;;11.80;99.90;;;;;;5041067;28;797;-46
2022/02/05 06:41:44;;;;;;;;;;;11.80;99.90;;;;;;5057780;28;904;-46
2022/02/05 06:44:11;;;;;;;;;;;11.80;99.90;;;;;;5039992;28;882;-46
2022/02/05 06:46:39;;;;;;;;;;;11.80;99.90;;;;;;5057102;28;1144;-46
2022/02/05 06:49:05;;;;;;;;;;;11.80;99.90;;;;;;5057678;28;884;-46
2022/02/05 06:51:32;;;;;;;;;;;11.80;99.90;;;;;;5063222;28;1344;-47
2022/02/05 06:54:01;;;;;;;;;;;11.80;99.90;;;;;;5050978;28;1902;-46
2022/02/05 06:56:27;;;;;;;;;;;11.80;99.90;;;;;;5051281;28;889;-46
2022/02/05 06:58:54;;;;;;;;;;;11.70;99.90;;;;;;5075599;28;805;-46
2022/02/05 07:01:21;;;;;;;;;;;11.70;99.90;;;;;;5075102;28;1129;-54
2022/02/05 07:03:53;;;;;;;;;;;11.70;99.90;;;;;;5067777;28;799;-54
2022/02/05 07:06:19;;;;;;;;;;;11.70;99.90;;;;;;5019388;28;969;-54
2022/02/05 07:08:51;;;;;;;;;;;11.70;99.90;;;;;;5039184;28;952;-54
2022/02/05 07:11:22;;;;;;;;;;;11.70;99.90;;;;;;5052492;28;784;-54
2022/02/05 07:13:51;;;;;;;;;;;11.70;99.90;;;;;;5038495;28;1882;-54
2022/02/05 07:16:28;;;;;;;;;;;11.70;99.90;;;;;;5056322;28;873;-54
2022/02/05 07:21:46;;;;;;;;;;;11.70;99.90;;;;;;5056588;28;1041;-54
2022/02/05 07:29:41;;;;;;;;;;;11.70;99.90;;;;;;5056725;28;905;-46
2022/02/05 07:32:07;;;;;;;;;;;11.70;99.90;;;;;;5022369;28;1111;-47
2022/02/05 07:34:35;;;;;;;;;;;11.70;99.90;;;;;;5021587;28;1981;-46
2022/02/05 07:37:03;;;;;;;;;;;11.70;99.90;;;;;;5005645;28;921;-46
2022/02/05 07:39:33;;;;;;;;;;;11.80;99.90;;;;;;5056476;28;843;-46
2022/02/05 07:42:02;;;;;;;;;;;11.80;99.90;;;;;;5056658;28;865;-46
2022/02/05 07:44:29;;;;;;;;;;;11.80;99.90;;;;;;5038631;28;840;-46
2022/02/05 07:47:00;;;;;;;;;;;11.80;99.90;;;;;;5056127;28;823;-46
2022/02/05 07:49:35;;;;;;;;;;;11.80;99.90;;;;;;5039085;28;884;-46
2022/02/05 07:52:06;;;;;;;;;;;11.80;99.90;;;;;;5056232;28;822;-46
2022/02/05 07:54:34;;;;;;;;;;;11.80;99.90;;;;;;5055662;28;1983;-46
2022/02/05 07:57:02;;;;;;;;;;;11.90;99.90;;;;;;5056288;28;1012;-46
2022/02/05 07:59:28;;;;;;;;;;;12.00;99.90;;;;;;5056332;28;758;-46
2022/02/05 08:01:55;;;;;;;;;;;12.00;99.90;;;;;;5056727;28;879;-46
2022/02/05 08:04:20;;;;;;;;;;;12.00;99.90;;;;;;5056391;28;797;-46
2022/02/05 08:06:50;;;;;;;;;;;12.10;99.90;;;;;;5056447;28;860;-47
2022/02/05 08:09:23;;;;;;;;;;;12.20;99.90;;;;;;5056279;28;754;-46
2022/02/05 08:14:42;;;;;;;;;;;12.30;99.90;;;;;;5056038;28;1906;-46
2022/02/05 08:17:18;;;;;;;;;;;12.40;99.90;;;;;;5055649;28;871;-47
2022/02/05 08:19:45;;;;;;;;;;;12.50;99.90;;;;;;5055955;28;879;-47
2022/02/05 08:22:12;;;;;;;;;;;12.60;99.90;;;;;;5056562;28;1100;-47
2022/02/05 08:24:39;;;;;;;;;;;12.70;99.90;;;;;;5059353;28;1036;-46
2022/02/05 08:27:06;;;;;;;;;;;12.80;99.90;;;;;;5060239;28;973;-47
2022/02/05 08:29:35;;;;;;;;;;;12.90;99.90;;;;;;5059928;28;786;-46
2022/02/05 08:32:02;;;;;;;;;;;12.90;99.90;;;;;;5059370;28;905;-46
2022/02/05 08:34:29;;;;;;;;;;;13.00;99.90;;;;;;5059762;28;1918;-47
2022/02/05 08:36:58;;;;;;;;;;;13.10;99.90;;;;;;5055539;28;864;-47
2022/02/05 08:39:45;;;;;;;;;;;13.20;99.90;;;;;;5058754;28;757;-46
2022/02/05 08:42:13;;;;;;;;;;;13.30;99.90;;;;;;5007751;28;997;-46
2022/02/05 08:44:39;;;;;;;;;;;13.40;99.90;;;;;;5041538;28;908;-46
2022/02/05 08:47:06;;;;;;;;;;;13.50;99.90;;;;;;5060003;28;801;-46
2022/02/05 08:49:32;;;;;;;;;;;13.50;99.90;;;;;;5059957;28;862;-47
2022/02/05 08:52:00;;;;;;;;;;;13.60;99.90;;;;;;5059595;28;846;-46
2022/02/05 08:54:29;;;;;;;;;;;13.60;99.90;;;;;;5059577;28;1981;-46
2022/02/05 08:56:55;;;;;;;;;;;13.70;99.90;;;;;;5041175;28;1460;-47
2022/02/05 08:59:23;;;;;;;;;;;13.80;99.90;;;;;;5059453;28;883;-46
2022/02/05 09:04:36;;;;;;;;;;;13.90;99.90;;;;;;5059320;28;877;-46
2022/02/05 09:07:02;;;;;;;;;;;13.90;99.90;;;;;;5059818;28;800;-46
2022/02/05 09:09:50;;;;;;;;;;;13.90;99.90;;;;;;5059206;28;874;-47
2022/02/05 09:12:55;;;;;;;;;;;13.90;99.90;;;;;;5055330;28;1339;-46
2022/02/05 09:15:18;;;;;;;;;;;14.00;99.90;;;;;;5056783;28;1979;-47
2022/02/05 09:17:45;;;;;;;;;;;14.00;99.90;;;;;;5059193;28;840;-47
2022/02/05 09:20:14;;;;;;;;;;;14.10;99.90;;;;;;5059466;28;911;-47
2022/02/05 09:22:40;;;;;;;;;;;14.10;99.90;;;;;;5058771;28;1024;-47
2022/02/05 09:25:06;;;;;;;;;;;14.10;99.90;;;;;;5058901;28;786;-46
2022/02/05 09:27:44;;;;;;;;;;;14.20;99.90;;;;;;5059296;28;773;-46
2022/02/05 09:30:15;;;;;;;;;;;14.20;99.90;;;;;;5024500;28;947;-46
2022/02/05 09:32:45;;;;;;;;;;;14.20;99.90;;;;;;5059067;28;767;-46
2022/02/05 09:35:12;;;;;;;;;;;14.30;99.90;;;;;;5041781;28;1973;-47
2022/02/05 09:37:40;;;;;;;;;;;14.30;99.90;;;;;;5024605;28;1020;-46
2022/02/05 09:40:08;;;;;;;;;;;14.30;99.90;;;;;;5040477;28;931;-46
2022/02/05 09:42:50;;;;;;;;;;;14.30;99.90;;;;;;5024411;28;972;-46
2022/02/05 09:45:17;;;;;;;;;;;14.40;99.90;;;;;;5054892;28;874;-46
2022/02/05 09:47:44;;;;;;;;;;;14.40;99.90;;;;;;5036977;28;1005;-47
2022/02/05 09:50:12;;;;;;;;;;;14.40;99.90;;;;;;5054480;28;872;-47
2022/02/05 09:52:40;;;;;;;;;;;14.50;99.90;;;;;;5077171;28;885;-46
2022/02/05 09:55:08;;;;;;;;;;;14.50;99.90;;;;;;5036105;28;1910;-46
2022/02/05 09:57:34;;;;;;;;;;;14.50;99.90;;;;;;5076706;28;893;-46
2022/02/05 10:00:03;;;;;;;;;;;14.50;99.90;;;;;;5058499;28;928;-46
2022/02/05 10:02:36;;;;;;;;;;;14.60;99.90;;;;;;5058007;28;1014;-46
2022/02/05 10:05:09;;;;;;;;;;;14.60;99.90;;;;;;4975156;28;959;-47
2022/02/05 10:07:56;;;;;;;;;;;14.60;99.90;;;;;;5057944;28;920;-46
2022/02/05 10:10:25;;;;;;;;;;;14.60;99.90;;;;;;5076243;28;828;-46
2022/02/05 10:13:13;;;;;;;;;;;14.50;99.90;;;;;;5076492;28;828;-46
2022/02/05 10:15:40;;;;;;;;;;;14.50;99.90;;;;;;5058088;28;1967;-47
2022/02/05 10:18:08;;;;;;;;;;;14.50;99.90;;;;;;5031814;28;914;-46
2022/02/05 10:20:39;;;;;;;;;;;14.50;99.90;;;;;;5023428;28;879;-46
2022/02/05 10:23:09;;;;;;;;;;;14.50;99.90;;;;;;5036995;28;1046;-47
2022/02/05 10:25:35;;;;;;;;;;;14.50;99.90;;;;;;5038222;28;937;-46
2022/02/05 10:28:07;;;;;;;;;;;14.50;99.90;;;;;;5056401;28;1077;-46
2022/02/05 10:30:35;;;;;;;;;;;14.50;99.90;;;;;;5056420;28;800;-46
2022/02/05 10:33:08;;;;;;;;;;;14.50;99.90;;;;;;5034102;28;999;-46
2022/02/05 10:35:43;;;;;;;;;;;14.50;99.90;;;;;;5033900;28;1961;-46
2022/02/05 10:40:46;;;;;;;;;;;14.50;99.90;;;;;;5037199;28;1366;-46
2022/02/05 10:43:13;;;;;;;;;;;14.50;99.90;;;;;;5005054;28;1116;-46
2022/02/05 10:45:42;;;;;;;;;;;14.50;99.90;;;;;;5015473;28;905;-47
2022/02/05 10:48:10;;;;;;;;;;;14.60;99.90;;;;;;5016162;28;1149;-46
2022/02/05 10:50:36;;;;;;;;;;;14.60;99.90;;;;;;5016162;28;846;-46
2022/02/05 10:53:13;;;;;;;;;;;14.60;99.90;;;;;;4983061;28;849;-46
2022/02/05 11:06:53;;;;;;;;;;;14.70;99.90;;;;;;5016017;28;928;-47
2022/02/05 11:09:24;;;;;;;;;;;14.80;99.90;;;;;;5015591;28;979;-47
2022/02/05 11:20:19;;;;;;;;;;;14.80;99.90;;;;;;5036889;28;1150;-47
2022/02/05 11:23:00;;;;;;;;;;;14.80;99.90;;;;;;5015011;28;1081;-47
2022/02/05 11:25:29;;;;;;;;;;;14.80;99.90;;;;;;5036807;28;874;-47
2022/02/05 11:27:56;;;;;;;;;;;14.80;99.90;;;;;;5037138;28;839;-47
2022/02/05 11:30:43;;;;;;;;;;;14.80;99.90;;;;;;5035440;28;1222;-47
2022/02/05 11:33:21;;;;;;;;;;;14.80;99.90;;;;;;5036436;28;901;-47
2022/02/05 11:36:20;;;;;;;;;;;14.80;99.90;;;;;;5036594;28;1910;-47
2022/02/05 11:38:37;;;;;;;;;;;14.80;99.90;;;;;;5018574;28;1362;-47
2022/02/05 11:41:25;;;;;;;;;;;14.80;99.90;;;;;;5036274;28;797;-47
2022/02/05 11:44:18;;;;;;;;;;;14.80;99.90;;;;;;5036446;28;925;-47
2022/02/05 11:47:03;;;;;;;;;;;14.80;99.90;;;;;;5032944;28;1351;-47
2022/02/05 11:49:48;;;;;;;;;;;14.80;99.90;;;;;;5036111;28;871;-47
2022/02/05 11:52:34;;;;;;;;;;;14.90;99.90;;;;;;5036672;28;830;-46
2022/02/05 11:55:20;;;;;;;;;;;14.80;99.90;;;;;;5036296;28;1961;-47
2022/02/05 11:57:49;;;;;;;;;;;14.80;99.90;;;;;;5020595;28;934;-47
2022/02/05 12:00:23;;;;;;;;;;;14.80;99.90;;;;;;5058405;28;993;-47
2022/02/05 12:05:39;;;;;;;;;;;14.80;99.90;;;;;;5039873;28;784;-47
2022/02/05 12:08:05;;;;;;;;;;;14.70;99.90;;;;;;5023009;28;931;-47
2022/02/05 12:10:38;;;;;;;;;;;14.70;99.90;;;;;;5040230;28;936;-47
2022/02/05 12:13:20;;;;;;;;;;;14.70;99.90;;;;;;5040089;28;823;-47
2022/02/05 12:15:59;;;;;;;;;;;14.70;99.90;;;;;;5040532;28;1973;-47
2022/02/05 12:18:31;;;;;;;;;;;14.70;99.90;;;;;;5040178;28;919;-47
2022/02/05 12:24:22;;;;;;;;;;;14.80;99.90;;;;;;4979469;28;1147;-47
2022/02/05 12:26:48;;;;;;;;;;;14.80;99.90;;;;;;4963619;28;876;-47
2022/02/05 12:29:29;;;;;;;;;;;14.80;99.90;;;;;;4979561;28;1115;-47
2022/02/05 12:31:57;;;;;;;;;;;14.80;99.90;;;;;;4979595;28;1057;-47
2022/02/05 12:34:31;;;;;;;;;;;14.80;99.90;;;;;;4963413;28;1960;-47
2022/02/05 12:37:00;;;;;;;;;;;14.80;99.90;;;;;;4960267;28;1908;-47
2022/02/05 12:39:33;;;;;;;;;;;14.80;99.90;;;;;;4959677;28;857;-47
2022/02/05 12:42:00;;;;;;;;;;;14.80;99.90;;;;;;4959987;28;1041;-47
2022/02/05 12:44:29;;;;;;;;;;;14.80;99.90;;;;;;4960209;28;886;-47
2022/02/05 12:47:06;;;;;;;;;;;14.80;99.90;;;;;;4960000;28;991;-47
2022/02/05 12:52:30;;;;;;;;;;;14.80;99.90;;;;;;4959230;29;1114;-47
2022/02/05 12:54:58;;;;;;;;;;;14.80;99.90;;;;;;4956426;29;1981;-47
2022/02/05 12:57:25;;;;;;;;;;;14.80;99.90;;;;;;4958808;29;1128;-47
2022/02/05 12:59:54;;;;;;;;;;;14.80;99.90;;;;;;4952487;28;985;-47
2022/02/05 13:02:23;;;;;;;;;;;14.80;99.90;;;;;;4977701;28;817;-48
2022/02/05 13:04:50;;;;;;;;;;;14.70;99.90;;;;;;4961833;28;1068;-47
2022/02/05 13:07:21;;;;;;;;;;;14.70;99.90;;;;;;4978958;28;804;-48
2022/02/05 13:09:55;;;;;;;;;;;14.70;99.90;;;;;;4974710;28;1122;-47
2022/02/05 13:12:43;;;;;;;;;;;14.70;99.90;;;;;;4965664;28;761;-47
2022/02/05 13:15:18;;;;;;;;;;;14.70;99.90;;;;;;4978551;28;1969;-47
2022/02/05 13:26:04;;;;;;;;;;;14.60;99.90;;;;;;4978760;28;837;-47
2022/02/05 13:28:51;;;;;;;;;;;14.70;99.90;;;;;;4954012;28;1014;-47
2022/02/05 13:39:57;;;;;;;;;;;14.70;99.90;;;;;;5039026;28;793;-47
2022/02/05 13:42:26;;;;;;;;;;;14.60;99.90;;;;;;5038378;28;1000;-47
2022/02/05 13:45:11;;;;;;;;;;;14.70;99.90;;;;;;5037482;28;888;-47
2022/02/05 13:48:02;;;;;;;;;;;14.70;99.90;;;;;;5037687;28;841;-47
2022/02/05 13:50:37;;;;;;;;;;;14.70;99.90;;;;;;5038239;28;781;-47
2022/02/05 13:53:04;;;;;;;;;;;14.70;99.90;;;;;;5004242;28;1128;-47
2022/02/05 13:55:33;;;;;;;;;;;14.70;99.90;;;;;;5038667;28;1906;-47
2022/02/05 13:58:02;;;;;;;;;;;14.70;99.90;;;;;;5038620;28;939;-47
2022/02/05 14:00:37;;;;;;;;;;;14.60;99.90;;;;;;5038423;28;1027;-47
2022/02/05 14:03:08;;;;;;;;;;;14.60;99.90;;;;;;5038223;28;911;-47
2022/02/05 14:05:46;;;;;;;;;;;14.60;99.90;;;;;;5056660;28;1030;-47
2022/02/05 14:08:23;;;;;;;;;;;14.60;99.90;;;;;;5056772;28;852;-47
2022/02/05 14:11:01;;;;;;;;;;;14.60;99.90;;;;;;5006181;28;954;-47
2022/02/05 14:13:29;;;;;;;;;;;14.60;99.90;;;;;;5056725;28;1021;-47
2022/02/05 14:15:59;;;;;;;;;;;14.60;99.90;;;;;;5055776;28;1898;-47
2022/02/05 14:18:27;;;;;;;;;;;14.60;99.90;;;;;;5045157;28;1136;-47
2022/02/05 14:20:56;;;;;;;;;;;14.60;99.90;;;;;;5019352;28;911;-47
2022/02/05 14:23:24;;;;;;;;;;;14.50;99.90;;;;;;5049291;28;1022;-47
2022/02/05 14:25:55;;;;;;;;;;;14.60;99.90;;;;;;5056420;28;1079;-47
2022/02/05 14:28:34;;;;;;;;;;;14.60;99.90;;;;;;5039781;28;927;-47
2022/02/05 14:31:10;;;;;;;;;;;14.50;99.90;;;;;;5056981;28;1061;-47
2022/02/05 14:42:02;;;;;;;;;;;14.50;99.90;;;;;;5035103;28;1014;-47
2022/02/05 14:44:30;;;;;;;;;;;14.50;99.90;;;;;;5022875;28;928;-47
2022/02/05 14:47:02;;;;;;;;;;;14.40;99.90;;;;;;5058533;28;1394;-47
2022/02/05 14:49:29;;;;;;;;;;;14.40;99.90;;;;;;5057198;28;920;-47
2022/02/05 14:52:01;;;;;;;;;;;14.40;99.90;;;;;;5057298;28;928;-47
2022/02/05 14:54:29;;;;;;;;;;;14.40;99.90;;;;;;5056995;28;894;-47
2022/02/05 14:56:55;;;;;;;;;;;14.40;99.90;;;;;;5056855;28;1979;-47
2022/02/05 14:59:21;;;;;;;;;;;14.40;99.90;;;;;;5022910;28;954;-47
2022/02/05 15:01:52;;;;;;;;;;;14.40;99.90;;;;;;5057087;28;781;-47
2022/02/05 15:04:20;;;;;;;;;;;14.40;99.90;;;;;;5039839;28;1060;-47
2022/02/05 15:06:47;;;;;;;;;;;14.40;99.90;;;;;;5056603;28;850;-47
2022/02/05 15:09:14;;;;;;;;;;;14.40;99.90;;;;;;5015743;28;982;-47
2022/02/05 15:11:40;;;;;;;;;;;14.40;99.90;;;;;;5015655;28;1786;-46
2022/02/05 15:14:06;;;;;;;;;;;14.40;99.90;;;;;;5015672;28;819;-47
2022/02/05 15:16:35;;;;;;;;;;;14.40;99.90;;;;;;4999150;28;1906;-47
2022/02/05 15:19:02;;;;;;;;;;;14.40;99.90;;;;;;5015535;28;837;-47
2022/02/05 15:21:30;;;;;;;;;;;14.30;99.90;;;;;;5015660;28;934;-47
2022/02/05 15:23:57;;;;;;;;;;;14.30;99.90;;;;;;5014888;28;1229;-47
2022/02/05 15:26:31;;;;;;;;;;;14.30;99.90;;;;;;4999347;28;914;-47
2022/02/05 15:28:57;;;;;;;;;;;14.30;99.90;;;;;;5015545;28;863;-47
2022/02/05 15:31:23;;;;;;;;;;;14.30;99.90;;;;;;5015142;28;975;-47
2022/02/05 15:33:56;;;;;;;;;;;14.30;99.90;;;;;;5015290;28;932;-47
2022/02/05 15:36:29;;;;;;;;;;;14.30;99.90;;;;;;4965725;28;1914;-47
2022/02/05 15:44:12;;;;;;;;;;;14.40;99.90;;;;;;5056413;28;790;-47
2022/02/05 15:46:38;;;;;;;;;;;14.40;99.90;;;;;;4973044;28;1247;-47
2022/02/05 15:49:04;;;;;;;;;;;14.40;99.90;;;;;;5034247;28;1118;-47
2022/02/05 15:51:31;;;;;;;;;;;14.40;99.90;;;;;;5017590;28;1445;-46
2022/02/05 15:54:03;;;;;;;;;;;14.40;99.90;;;;;;5034518;28;905;-47
2022/02/05 15:59:12;;;;;;;;;;;14.40;99.90;;;;;;5028352;28;900;-47
2022/02/05 16:01:45;;;;;;;;;;;14.40;99.90;;;;;;5042901;28;853;-47
2022/02/05 16:04:13;;;;;;;;;;;14.40;99.90;;;;;;5042475;28;902;-47
2022/02/05 16:06:40;;;;;;;;;;;14.40;99.90;;;;;;5035109;28;912;-47
2022/02/05 16:09:06;;;;;;;;;;;14.40;99.90;;;;;;5018276;28;960;-47
2022/02/05 16:11:32;;;;;;;;;;;14.40;99.90;;;;;;5034552;28;886;-47
2022/02/05 16:13:59;;;;;;;;;;;14.40;99.90;;;;;;5034482;28;976;-47
2022/02/05 16:16:30;;;;;;;;;;;14.40;99.90;;;;;;5018467;28;1894;-47
2022/02/05 16:18:56;;;;;;;;;;;14.40;99.90;;;;;;5041668;28;1007;-47
2022/02/05 16:21:22;;;;;;;;;;;14.40;99.90;;;;;;5037861;28;851;-47
2022/02/05 16:23:52;;;;;;;;;;;14.40;99.90;;;;;;5021572;28;1244;-47
2022/02/05 16:26:18;;;;;;;;;;;14.40;99.90;;;;;;5057843;28;1549;-47
2022/02/05 16:28:45;;;;;;;;;;;14.40;99.90;;;;;;5049920;28;952;-47
2022/02/05 16:31:11;;;;;;;;;;;14.30;99.90;;;;;;5074486;28;816;-47
2022/02/05 16:33:41;;;;;;;;;;;14.30;99.90;;;;;;5018150;28;972;-47
2022/02/05 16:36:12;;;;;;;;;;;14.30;99.90;;;;;;5056266;28;1907;-47
2022/02/05 16:38:45;;;;;;;;;;;14.30;99.90;;;;;;5056241;28;781;-47
2022/02/05 16:41:11;;;;;;;;;;;14.30;99.90;;;;;;5037910;28;1582;-47
2022/02/05 16:43:39;;;;;;;;;;;14.30;99.90;;;;;;5057728;28;826;-47
2022/02/05 16:46:26;;;;;;;;;;;14.30;99.90;;;;;;5031202;28;881;-47
2022/02/05 16:48:57;;;;;;;;;;;14.20;99.90;;;;;;5069045;28;1320;-56
2022/02/05 16:51:26;;;;;;;;;;;14.20;99.90;;;;;;5042204;28;990;-55
2022/02/05 16:53:52;;;;;;;;;;;14.20;99.90;;;;;;5059239;28;1034;-55
2022/02/05 16:56:19;;;;;;;;;;;14.20;99.90;;;;;;5059622;28;1972;-55
2022/02/05 16:58:45;;;;;;;;;;;14.20;99.90;;;;;;5059127;28;873;-55
2022/02/05 17:01:12;;;;;;;;;;;14.20;99.90;;;;;;5059581;28;848;-56
2022/02/05 17:03:39;;;;;;;;;;;14.20;99.90;;;;;;5058460;28;925;-55
2022/02/05 17:06:12;;;;;;;;;;;14.20;99.90;;;;;;5059539;28;813;-55
2022/02/05 17:08:37;;;;;;;;;;;14.20;99.90;;;;;;5059419;28;783;-55
2022/02/05 17:11:04;;;;;;;;;;;14.20;99.90;;;;;;5058738;28;992;-55
2022/02/05 17:13:32;;;;;;;;;;;14.30;99.90;;;;;;5041183;28;998;-55
2022/02/05 17:16:00;;;;;;;;;;;14.30;99.90;;;;;;5058988;28;1973;-55
2022/02/05 17:18:28;;;;;;;;;;;14.30;99.90;;;;;;5059066;28;884;-55
2022/02/05 17:20:57;;;;;;;;;;;14.30;99.90;;;;;;5042115;28;884;-55
2022/02/05 17:23:33;;;;;;;;;;;14.40;99.90;;;;;;5039981;28;1081;-55
2022/02/05 17:26:01;;;;;;;;;;;14.40;99.90;;;;;;5024591;28;898;-55
2022/02/05 17:28:29;;;;;;;;;;;14.40;99.90;;;;;;5058941;28;795;-55
2022/02/05 17:30:56;;;;;;;;;;;14.40;99.90;;;;;;5058137;28;947;-55
2022/02/05 17:33:24;;;;;;;;;;;14.40;99.90;;;;;;5058859;28;856;-55
2022/02/05 17:36:01;;;;;;;;;;;14.40;99.90;;;;;;5058403;28;1918;-55
2022/02/05 17:38:29;;;;;;;;;;;14.40;99.90;;;;;;5058826;28;820;-55
2022/02/05 17:40:58;;;;;;;;;;;14.40;99.90;;;;;;5058881;28;768;-56
2022/02/05 17:43:25;;;;;;;;;;;14.40;99.90;;;;;;5040595;28;1218;-55
2022/02/05 17:45:53;;;;;;;;;;;14.40;99.90;;;;;;5024113;28;1050;-55
2022/02/05 17:48:20;;;;;;;;;;;14.40;99.90;;;;;;5023285;28;1128;-55
2022/02/05 17:50:47;;;;;;;;;;;14.40;99.90;;;;;;5040551;28;1889;-55
2022/02/05 17:53:15;;;;;;;;;;;14.40;99.90;;;;;;5058852;28;846;-55
2022/02/05 17:55:43;;;;;;;;;;;14.40;99.90;;;;;;5058531;28;1906;-55
2022/02/05 17:58:11;;;;;;;;;;;14.40;99.90;;;;;;5058061;28;995;-55
2022/02/05 18:00:41;;;;;;;;;;;14.40;99.90;;;;;;5058252;28;900;-55
2022/02/05 18:03:07;;;;;;;;;;;14.40;99.90;;;;;;4990139;28;1123;-55
2022/02/05 18:10:41;;;;;;;;;;;14.30;99.90;;;;;;5076150;28;1178;-55
2022/02/05 18:15:53;;;;;;;;;;;14.30;99.90;;;;;;5076383;28;1902;-55
2022/02/05 18:18:21;;;;;;;;;;;14.30;99.90;;;;;;5064807;28;1016;-55
2022/02/05 18:20:48;;;;;;;;;;;14.30;99.90;;;;;;5057994;28;920;-55
2022/02/05 18:23:15;;;;;;;;;;;14.20;99.90;;;;;;5016509;28;1097;-55
2022/02/05 18:25:42;;;;;;;;;;;14.20;99.90;;;;;;5015780;28;871;-55
2022/02/05 18:28:12;;;;;;;;;;;14.20;99.90;;;;;;5012632;28;983;-55
2022/02/05 18:30:41;;;;;;;;;;;14.20;99.90;;;;;;5012973;28;905;-55
2022/02/05 18:33:08;;;;;;;;;;;14.20;99.90;;;;;;5016493;28;885;-55
2022/02/05 18:35:36;;;;;;;;;;;14.20;99.90;;;;;;5015826;28;1910;-55